createdAt,value
2018-07-25T00:01:20.698Z,8.57
2018-07-25T00:03:49.583Z,7.97
2018-07-25T00:06:18.303Z,7.87
2018-07-25T00:08:47.055Z,7.83
2018-07-25T00:11:15.711Z,8.00
2018-07-25T00:13:44.430Z,8.37
2018-07-25T00:16:13.134Z,7.80
2018-07-25T00:18:41.911Z,9.23
2018-07-25T00:21:10.586Z,10.20
2018-07-25T00:23:39.314Z,7.23
2018-07-25T00:26:08.158Z,9.03
2018-07-25T00:28:36.862Z,9.77
2018-07-25T00:31:05.539Z,8.40
2018-07-25T00:33:34.247Z,8.50
2018-07-25T00:36:02.926Z,6.93
2018-07-25T00:38:31.610Z,8.20
2018-07-25T00:41:00.378Z,9.03
2018-07-25T00:43:29.033Z,7.17
2018-07-25T00:45:57.699Z,7.37
2018-07-25T00:48:26.442Z,9.43
2018-07-25T00:50:55.092Z,7.87
2018-07-25T00:53:23.822Z,7.80
2018-07-25T00:55:52.505Z,7.83
2018-07-25T00:58:21.298Z,6.80
2018-07-25T01:00:50.095Z,7.70
2018-07-25T01:03:18.778Z,8.03
2018-07-25T01:05:47.469Z,7.73
2018-07-25T01:08:16.243Z,11.57
2018-07-25T01:10:45.037Z,8.43
2018-07-25T01:13:13.812Z,6.33
2018-07-25T01:15:42.616Z,9.07
2018-07-25T01:18:11.261Z,8.67
2018-07-25T01:20:39.931Z,6.53
2018-07-25T01:23:08.646Z,8.70
2018-07-25T01:25:37.302Z,11.57
2018-07-25T01:28:06.051Z,8.70
2018-07-25T01:30:34.710Z,7.50
2018-07-25T01:33:03.406Z,10.87
2018-07-25T01:35:32.119Z,11.60
2018-07-25T01:38:00.886Z,10.10
2018-07-25T01:40:29.555Z,8.43
2018-07-25T01:42:58.285Z,9.73
2018-07-25T01:45:26.966Z,10.93
2018-07-25T01:47:55.643Z,8.00
2018-07-25T01:50:24.359Z,8.90
2018-07-25T01:52:53.006Z,10.93
2018-07-25T01:55:21.690Z,7.90
2018-07-25T01:57:50.392Z,9.87
2018-07-25T02:00:19.058Z,9.37
2018-07-25T02:02:47.713Z,8.47
2018-07-25T02:05:16.450Z,10.37
2018-07-25T02:07:45.222Z,16.17
2018-07-25T02:10:13.911Z,9.87
2018-07-25T02:12:42.605Z,10.20
2018-07-25T02:15:11.368Z,10.80
2018-07-25T02:17:40.017Z,11.73
2018-07-25T02:20:08.755Z,8.70
2018-07-25T02:22:37.441Z,10.63
2018-07-25T02:25:06.139Z,11.47
2018-07-25T02:27:34.919Z,9.07
2018-07-25T02:30:03.819Z,9.60
2018-07-25T02:32:32.596Z,12.20
2018-07-25T02:35:01.260Z,8.67
2018-07-25T02:37:29.965Z,11.60
2018-07-25T02:39:58.670Z,9.73
2018-07-25T02:42:27.400Z,12.00
2018-07-25T02:44:56.035Z,11.63
2018-07-25T02:47:24.694Z,11.10
2018-07-25T02:49:53.346Z,12.77
2018-07-25T02:52:22.011Z,10.67
2018-07-25T02:54:50.671Z,10.60
2018-07-25T02:57:19.358Z,9.90
2018-07-25T02:59:48.054Z,9.03
2018-07-25T03:02:16.738Z,10.93
2018-07-25T03:04:45.411Z,13.10
2018-07-25T03:07:14.114Z,13.17
2018-07-25T03:09:42.786Z,11.60
2018-07-25T03:12:11.445Z,12.97
2018-07-25T03:14:40.125Z,19.57
2018-07-25T03:17:09.057Z,11.00
2018-07-25T03:19:38.143Z,13.13
2018-07-25T03:22:06.826Z,11.77
2018-07-25T03:24:35.483Z,12.50
2018-07-25T03:27:04.138Z,12.00
2018-07-25T03:29:32.906Z,10.10
2018-07-25T03:32:01.576Z,11.70
2018-07-25T03:34:30.266Z,11.07
2018-07-25T03:36:58.980Z,10.40
2018-07-25T03:39:27.734Z,11.80
2018-07-25T03:41:56.429Z,10.70
2018-07-25T03:44:25.226Z,10.97
2018-07-25T03:46:53.910Z,10.97
2018-07-25T03:49:22.581Z,8.90
2018-07-25T03:51:51.242Z,9.60
2018-07-25T03:54:19.899Z,11.90
2018-07-25T03:56:48.639Z,8.83
2018-07-25T03:59:17.441Z,11.30
2018-07-25T04:01:46.118Z,8.80
2018-07-25T04:04:14.833Z,10.47
2018-07-25T04:06:43.591Z,9.57
2018-07-25T04:09:12.282Z,8.80
2018-07-25T04:11:40.967Z,11.57
2018-07-25T04:14:09.646Z,11.47
2018-07-25T04:16:38.338Z,9.23
2018-07-25T04:19:07.030Z,9.07
2018-07-25T04:21:35.675Z,9.10
2018-07-25T04:24:04.395Z,11.27
2018-07-25T04:26:33.086Z,9.80
2018-07-25T04:29:02.078Z,8.63
2018-07-25T04:31:30.761Z,10.03
2018-07-25T04:33:59.474Z,10.23
2018-07-25T04:36:28.134Z,10.63
2018-07-25T04:38:56.838Z,14.77
2018-07-25T04:41:25.614Z,11.57
2018-07-25T04:43:54.277Z,13.67
2018-07-25T04:46:23.037Z,14.43
2018-07-25T04:48:51.662Z,13.93
2018-07-25T04:51:20.354Z,13.60
2018-07-25T04:53:49.017Z,13.83
2018-07-25T04:56:17.692Z,14.83
2018-07-25T04:58:46.428Z,12.97
2018-07-25T05:01:15.102Z,13.33
2018-07-25T05:03:43.779Z,12.80
2018-07-25T05:06:12.435Z,13.50
2018-07-25T05:08:41.667Z,20.33
2018-07-25T05:11:10.360Z,19.10
2018-07-25T05:13:39.046Z,19.70
2018-07-25T05:16:07.702Z,14.67
2018-07-25T05:18:36.371Z,11.67
2018-07-25T05:21:05.103Z,13.50
2018-07-25T05:23:33.782Z,8.87
2018-07-25T05:26:02.478Z,12.30
2018-07-25T05:28:31.162Z,11.57
2018-07-25T05:30:59.823Z,11.07
2018-07-25T05:33:28.474Z,13.27
2018-07-25T05:35:57.217Z,14.37
2018-07-25T05:38:25.871Z,12.87
2018-07-25T05:40:54.550Z,11.50
2018-07-25T05:43:23.253Z,11.10
2018-07-25T05:45:51.987Z,12.63
2018-07-25T05:48:20.676Z,10.93
2018-07-25T05:50:49.354Z,14.00
2018-07-25T05:53:18.039Z,13.13
2018-07-25T05:55:46.790Z,10.23
2018-07-25T05:58:15.474Z,11.77
2018-07-25T06:00:44.182Z,11.80
2018-07-25T06:03:12.898Z,13.27
2018-07-25T06:05:41.570Z,9.07
2018-07-25T06:08:10.218Z,10.03
2018-07-25T06:10:38.873Z,10.13
2018-07-25T06:13:07.658Z,13.47
2018-07-25T06:15:36.294Z,10.83
2018-07-25T06:18:05.083Z,14.87
2018-07-25T06:20:33.817Z,11.00
2018-07-25T06:23:02.478Z,10.30
2018-07-25T06:25:31.270Z,10.03
2018-07-25T06:28:00.035Z,12.57
2018-07-25T06:30:28.750Z,12.03
2018-07-25T06:32:57.406Z,9.93
2018-07-25T06:35:27.215Z,10.80
2018-07-25T06:37:55.924Z,10.33
2018-07-25T06:40:24.583Z,12.10
2018-07-25T06:42:53.314Z,9.10
2018-07-25T06:45:22.067Z,12.50
2018-07-25T06:47:50.752Z,9.00
2018-07-25T06:50:19.438Z,11.37
2018-07-25T06:52:48.117Z,10.13
2018-07-25T06:55:16.810Z,9.33
2018-07-25T06:57:45.513Z,8.17
2018-07-25T07:00:14.307Z,7.80
2018-07-25T07:02:43.060Z,8.17
2018-07-25T07:05:11.720Z,10.17
2018-07-25T07:07:40.384Z,11.10
2018-07-25T07:10:09.113Z,8.53
2018-07-25T07:12:37.766Z,9.20
2018-07-25T07:15:06.815Z,7.37
2018-07-25T07:17:35.491Z,8.73
2018-07-25T07:20:04.431Z,8.87
2018-07-25T07:22:33.094Z,13.00
2018-07-25T07:25:01.869Z,8.03
2018-07-25T07:27:30.525Z,10.23
2018-07-25T07:29:59.224Z,8.33
2018-07-25T07:32:27.932Z,15.53
2018-07-25T07:34:56.605Z,9.43
2018-07-25T07:37:25.357Z,8.47
2018-07-25T07:39:53.979Z,10.87
2018-07-25T07:42:22.678Z,11.23
2018-07-25T07:44:51.354Z,10.77
2018-07-25T07:47:20.051Z,10.30
2018-07-25T07:49:48.738Z,13.60
2018-07-25T07:52:17.621Z,13.37
2018-07-25T07:54:46.278Z,13.23
2018-07-25T07:57:14.991Z,13.20
2018-07-25T07:59:43.670Z,10.27
2018-07-25T08:02:12.405Z,11.03
2018-07-25T08:04:41.083Z,10.77
2018-07-25T08:07:09.737Z,12.87
2018-07-25T08:09:38.395Z,11.43
2018-07-25T08:12:07.125Z,12.30
2018-07-25T08:14:35.905Z,11.00
2018-07-25T08:17:04.591Z,10.27
2018-07-25T08:19:33.383Z,10.07
2018-07-25T08:22:02.179Z,10.17
2018-07-25T08:24:30.955Z,11.10
2018-07-25T08:26:59.734Z,8.73
2018-07-25T08:29:28.399Z,13.13
2018-07-25T08:31:57.089Z,11.63
2018-07-25T08:34:25.796Z,14.67
2018-07-25T08:36:54.447Z,13.07
2018-07-25T08:39:23.148Z,15.60
2018-07-25T08:41:51.797Z,14.40
2018-07-25T08:44:20.446Z,9.57
2018-07-25T08:46:49.185Z,10.80
2018-07-25T08:49:17.827Z,9.60
2018-07-25T08:51:46.493Z,11.07
2018-07-25T08:54:15.164Z,7.57
2018-07-25T08:56:43.855Z,9.00
2018-07-25T08:59:12.553Z,12.43
2018-07-25T09:01:41.271Z,7.33
2018-07-25T09:04:09.932Z,6.50
2018-07-25T09:06:38.617Z,7.07
2018-07-25T09:09:07.758Z,6.53
2018-07-25T09:11:36.516Z,8.57
2018-07-25T09:14:05.315Z,7.70
2018-07-25T09:16:33.974Z,7.83
2018-07-25T09:19:03.392Z,9.87
2018-07-25T09:21:32.472Z,10.33
2018-07-25T09:24:01.176Z,7.10
2018-07-25T09:26:29.843Z,8.43
2018-07-25T09:28:58.506Z,5.43
2018-07-25T09:31:27.173Z,10.67
2018-07-25T09:33:55.930Z,10.90
2018-07-25T09:36:24.570Z,8.93
2018-07-25T09:38:53.273Z,43.93
2018-07-25T09:41:22.068Z,15.47
2018-07-25T09:43:50.868Z,11.00
2018-07-25T09:46:19.562Z,7.00
2018-07-25T09:48:48.183Z,9.00
2018-07-25T09:51:16.912Z,9.57
2018-07-25T09:53:45.558Z,7.77
2018-07-25T09:56:14.284Z,13.77
2018-07-25T09:58:42.954Z,8.53
2018-07-25T10:01:11.734Z,9.07
2018-07-25T10:03:40.271Z,10.37
2018-07-25T10:06:08.964Z,6.23
2018-07-25T10:08:37.606Z,7.80
2018-07-25T10:11:06.303Z,9.53
2018-07-25T10:13:34.988Z,10.07
2018-07-25T10:16:03.885Z,6.13
2018-07-25T10:18:32.570Z,7.90
2018-07-25T10:21:01.274Z,6.27
2018-07-25T10:23:29.941Z,6.97
2018-07-25T10:25:58.631Z,6.67
2018-07-25T10:28:27.398Z,5.63
2018-07-25T10:30:56.087Z,5.03
2018-07-25T10:33:24.797Z,6.70
2018-07-25T10:35:53.582Z,7.20
2018-07-25T10:38:22.260Z,5.23
2018-07-25T10:40:50.944Z,7.23
2018-07-25T10:43:19.633Z,5.13
2018-07-25T10:45:48.340Z,5.93
2018-07-25T10:48:17.000Z,5.30
2018-07-25T10:50:45.670Z,3.40
2018-07-25T10:53:14.309Z,3.23
2018-07-25T10:55:43.102Z,3.97
2018-07-25T10:58:11.751Z,3.50
2018-07-25T11:00:40.468Z,3.63
2018-07-25T11:03:09.172Z,5.03
2018-07-25T11:05:37.962Z,4.13
2018-07-25T11:08:06.739Z,4.20
2018-07-25T11:10:35.426Z,4.37
2018-07-25T11:13:04.157Z,3.90
2018-07-25T11:15:32.812Z,3.47
2018-07-25T11:18:01.466Z,4.03
2018-07-25T11:20:30.167Z,4.43
2018-07-25T11:22:58.912Z,6.60
2018-07-25T11:25:27.537Z,4.83
2018-07-25T11:27:56.334Z,3.70
2018-07-25T11:30:25.119Z,3.87
2018-07-25T11:32:53.855Z,6.57
2018-07-25T11:35:22.497Z,8.13
2018-07-25T11:37:51.196Z,7.43
2018-07-25T11:40:19.938Z,6.33
2018-07-25T11:42:48.613Z,4.80
2018-07-25T11:45:17.280Z,5.77
2018-07-25T11:47:45.980Z,6.10
2018-07-25T11:50:14.682Z,5.20
2018-07-25T11:52:43.285Z,5.40
2018-07-25T11:55:11.954Z,5.90
2018-07-25T11:57:40.662Z,4.90
2018-07-25T12:00:09.354Z,6.13
2018-07-25T12:02:38.014Z,3.37
2018-07-25T12:05:06.778Z,4.70
2018-07-25T12:07:35.451Z,6.53
2018-07-25T12:10:04.445Z,3.50
2018-07-25T12:12:33.222Z,4.30
2018-07-25T12:15:01.890Z,3.90
2018-07-25T12:17:30.558Z,3.23
2018-07-25T12:19:59.284Z,2.57
2018-07-25T12:22:27.952Z,2.67
2018-07-25T12:24:56.612Z,3.63
2018-07-25T12:27:25.277Z,3.07
2018-07-25T12:29:53.934Z,4.23
2018-07-25T12:32:22.618Z,3.43
2018-07-25T12:34:51.303Z,3.87
2018-07-25T12:37:19.971Z,2.23
2018-07-25T12:39:48.654Z,3.47
2018-07-25T12:42:17.326Z,3.87
2018-07-25T12:44:46.046Z,3.97
2018-07-25T12:47:14.736Z,2.40
2018-07-25T12:49:43.448Z,1.70
2018-07-25T12:52:12.190Z,2.80
2018-07-25T12:54:40.892Z,3.10
2018-07-25T12:57:09.571Z,2.37
2018-07-25T12:59:38.229Z,3.40
2018-07-25T13:02:06.959Z,2.77
2018-07-25T13:04:35.654Z,3.93
2018-07-25T13:07:04.407Z,3.27
2018-07-25T13:09:33.060Z,2.57
2018-07-25T13:12:01.815Z,2.73
2018-07-25T13:14:30.486Z,2.47
2018-07-25T13:16:59.175Z,4.63
2018-07-25T13:19:27.866Z,3.13
2018-07-25T13:21:56.529Z,3.17
2018-07-25T13:24:25.229Z,5.10
2018-07-25T13:26:54.040Z,3.30
2018-07-25T13:29:22.810Z,2.43
2018-07-25T13:31:51.490Z,2.73
2018-07-25T13:34:20.283Z,2.43
2018-07-25T13:36:48.983Z,3.93
2018-07-25T13:39:17.759Z,2.20
2018-07-25T13:41:47.511Z,2.13
2018-07-25T13:44:16.268Z,3.13
2018-07-25T13:46:44.955Z,2.30
2018-07-25T13:49:13.634Z,2.63
2018-07-25T13:51:42.426Z,3.27
2018-07-25T13:54:11.149Z,4.67
2018-07-25T13:56:39.812Z,3.00
2018-07-25T13:59:08.478Z,3.27
2018-07-25T14:01:37.155Z,4.00
2018-07-25T14:04:05.869Z,3.57
2018-07-25T14:06:34.627Z,3.40
2018-07-25T14:09:03.366Z,4.37
2018-07-25T14:11:32.163Z,2.93
2018-07-25T14:14:00.793Z,3.00
2018-07-25T14:16:29.479Z,5.63
2018-07-25T14:18:58.135Z,4.40
2018-07-25T14:21:26.786Z,3.73
2018-07-25T14:23:55.641Z,4.27
2018-07-25T14:26:24.167Z,3.20
2018-07-25T14:28:52.939Z,4.50
2018-07-25T14:31:21.558Z,5.67
2018-07-25T14:33:50.247Z,4.17
2018-07-25T14:36:18.972Z,3.60
2018-07-25T14:38:47.631Z,3.80
2018-07-25T14:41:16.302Z,4.30
2018-07-25T14:43:44.994Z,3.93
2018-07-25T14:46:13.685Z,4.80
2018-07-25T14:48:42.354Z,6.00
2018-07-25T14:51:11.209Z,4.63
2018-07-25T14:53:39.846Z,5.07
2018-07-25T14:56:08.734Z,3.43
2018-07-25T14:58:37.410Z,5.70
2018-07-25T15:01:06.430Z,4.43
2018-07-25T15:03:36.042Z,4.13
2018-07-25T15:06:04.787Z,5.27
2018-07-25T15:08:33.447Z,6.27
2018-07-25T15:11:02.159Z,3.53
2018-07-25T15:13:30.866Z,4.57
2018-07-25T15:15:59.643Z,5.50
2018-07-25T15:18:28.303Z,6.73
2018-07-25T15:20:56.972Z,4.17
2018-07-25T15:23:31.307Z,6.77
2018-07-25T15:25:59.985Z,5.30
2018-07-25T15:28:28.654Z,5.07
2018-07-25T15:30:57.335Z,5.73
2018-07-25T15:33:26.005Z,6.03
2018-07-25T15:35:54.687Z,5.17
2018-07-25T15:38:23.360Z,7.10
2018-07-25T15:40:52.079Z,4.83
2018-07-25T15:43:20.727Z,6.33
2018-07-25T15:45:49.414Z,6.20
2018-07-25T15:48:18.083Z,4.60
2018-07-25T15:50:46.905Z,4.87
2018-07-25T15:53:15.555Z,5.77
2018-07-25T15:55:44.226Z,5.00
2018-07-25T15:58:12.954Z,4.47
2018-07-25T16:00:41.634Z,6.63
2018-07-25T16:03:10.298Z,4.53
2018-07-25T16:05:38.960Z,5.17
2018-07-25T16:08:07.724Z,4.60
2018-07-25T16:10:36.475Z,5.70
2018-07-25T16:13:05.487Z,5.73
2018-07-25T16:15:34.282Z,4.47
2018-07-25T16:18:02.926Z,5.63
2018-07-25T16:20:31.626Z,4.10
2018-07-25T16:23:00.394Z,4.30
2018-07-25T16:25:29.102Z,5.27
2018-07-25T16:27:57.780Z,4.10
2018-07-25T16:30:26.562Z,3.90
2018-07-25T16:32:55.247Z,4.13
2018-07-25T16:35:23.922Z,6.63
2018-07-25T16:37:52.630Z,9.80
2018-07-25T16:40:21.303Z,10.77
2018-07-25T16:42:50.003Z,5.30
2018-07-25T16:45:18.690Z,5.20
2018-07-25T16:47:47.387Z,5.47
2018-07-25T16:50:16.054Z,6.43
2018-07-25T16:52:44.742Z,7.80
2018-07-25T16:55:13.442Z,6.50
2018-07-25T16:57:42.127Z,7.37
2018-07-25T17:00:10.792Z,6.93
2018-07-25T17:02:39.551Z,6.70
2018-07-25T17:05:08.175Z,5.73
2018-07-25T17:07:36.875Z,4.47
2018-07-25T17:10:05.655Z,4.90
2018-07-25T17:12:34.410Z,4.40
2018-07-25T17:15:03.127Z,4.37
2018-07-25T17:17:31.805Z,5.27
2018-07-25T17:20:00.499Z,4.83
2018-07-25T17:22:29.452Z,5.00
2018-07-25T17:24:58.565Z,5.27
2018-07-25T17:27:27.462Z,4.67
2018-07-25T17:29:56.326Z,4.87
2018-07-25T17:32:25.379Z,4.90
2018-07-25T17:34:54.453Z,3.87
2018-07-25T17:37:23.494Z,5.17
2018-07-25T17:39:52.558Z,4.40
2018-07-25T17:42:21.670Z,4.33
2018-07-25T17:44:50.728Z,6.80
2018-07-25T17:47:19.871Z,5.60
2018-07-25T17:49:48.939Z,3.90
2018-07-25T17:52:18.042Z,7.33
2018-07-25T17:54:47.107Z,4.20
2018-07-25T17:57:16.271Z,4.70
2018-07-25T17:59:45.379Z,6.00
2018-07-25T18:02:14.462Z,6.23
2018-07-25T18:04:43.516Z,7.73
2018-07-25T18:07:12.722Z,5.10
2018-07-25T18:09:41.770Z,4.10
2018-07-25T18:12:10.832Z,4.20
2018-07-25T18:14:39.888Z,4.30
2018-07-25T18:17:09.034Z,6.47
2018-07-25T18:19:38.047Z,5.37
2018-07-25T18:22:07.541Z,5.33
2018-07-25T18:24:36.597Z,7.83
2018-07-25T18:27:05.673Z,6.33
2018-07-25T18:29:34.752Z,5.10
2018-07-25T18:32:03.859Z,5.83
2018-07-25T18:34:32.907Z,4.60
2018-07-25T18:37:02.293Z,6.20
2018-07-25T18:39:31.696Z,7.37
2018-07-25T18:42:00.848Z,4.87
2018-07-25T18:44:29.899Z,7.57
2018-07-25T18:46:59.021Z,5.77
2018-07-25T18:49:28.466Z,5.63
2018-07-25T18:51:57.571Z,6.07
2018-07-25T18:54:26.966Z,4.73
2018-07-25T18:56:56.165Z,5.47
2018-07-25T18:59:25.111Z,5.90
2018-07-25T19:01:54.731Z,5.43
2018-07-25T19:04:23.816Z,6.07
2018-07-25T19:06:53.160Z,6.83
2018-07-25T19:09:22.232Z,5.43
2018-07-25T19:11:51.629Z,6.33
2018-07-25T19:14:26.223Z,7.50
2018-07-25T19:16:55.270Z,8.00
2018-07-25T19:19:24.310Z,7.00
2018-07-25T19:21:53.643Z,5.20
2018-07-25T19:24:22.706Z,5.47
2018-07-25T19:26:52.142Z,8.00
2018-07-25T19:29:21.424Z,6.77
2018-07-25T19:31:50.846Z,6.50
2018-07-25T19:34:20.052Z,7.70
2018-07-25T19:36:48.995Z,6.50
2018-07-25T19:39:18.440Z,5.93
2018-07-25T19:41:48.123Z,9.70
2018-07-25T19:44:17.199Z,6.07
2018-07-25T19:46:46.722Z,6.87
2018-07-25T19:49:15.781Z,7.83
2018-07-25T19:51:45.220Z,6.90
2018-07-25T19:54:14.300Z,6.13
2018-07-25T19:56:43.359Z,6.93
2018-07-25T19:59:12.415Z,6.10
2018-07-25T20:01:41.475Z,8.10
2018-07-25T20:04:10.881Z,6.00
2018-07-25T20:06:39.957Z,7.73
2018-07-25T20:09:09.032Z,6.10
2018-07-25T20:11:38.303Z,8.50
2018-07-25T20:14:12.848Z,7.60
2018-07-25T20:16:41.650Z,7.23
2018-07-25T20:19:10.607Z,5.33
2018-07-25T20:21:39.655Z,6.43
2018-07-25T20:24:09.269Z,6.73
2018-07-25T20:26:38.342Z,6.73
2018-07-25T20:29:07.907Z,6.43
2018-07-25T20:31:37.005Z,7.33
2018-07-25T20:34:05.951Z,6.63
2018-07-25T20:36:35.296Z,6.07
2018-07-25T20:39:07.974Z,6.87
2018-07-25T20:41:37.032Z,8.13
2018-07-25T20:44:06.472Z,6.87
2018-07-25T20:46:35.772Z,7.23
2018-07-25T20:49:05.380Z,5.43
2018-07-25T20:51:34.887Z,6.20
2018-07-25T20:54:04.392Z,9.40
2018-07-25T20:56:33.602Z,6.70
2018-07-25T20:59:03.095Z,6.83
2018-07-25T21:01:32.154Z,6.80
2018-07-25T21:04:01.203Z,7.40
2018-07-25T21:06:30.270Z,8.50
2018-07-25T21:11:39.533Z,9.90
2018-07-25T21:14:08.589Z,7.93
2018-07-25T21:16:37.643Z,6.87
2018-07-25T21:19:06.713Z,10.40
2018-07-25T21:21:35.816Z,6.63
2018-07-25T21:24:04.938Z,7.97
2018-07-25T21:26:34.023Z,7.57
2018-07-25T21:29:03.095Z,7.67
2018-07-25T21:31:32.160Z,8.73
2018-07-25T21:34:01.217Z,8.43
2018-07-25T21:36:30.045Z,9.70
2018-07-25T21:38:58.991Z,8.83
2018-07-25T21:41:28.083Z,8.20
2018-07-25T21:43:57.167Z,11.83
2018-07-25T21:46:26.224Z,6.93
2018-07-25T21:48:55.291Z,7.13
2018-07-25T21:51:24.334Z,7.67
2018-07-25T21:53:53.376Z,7.70
2018-07-25T21:56:22.474Z,7.27
2018-07-25T21:58:51.529Z,10.03
2018-07-25T22:01:20.589Z,7.60
2018-07-25T22:03:49.684Z,9.90
2018-07-25T22:06:18.701Z,8.73
2018-07-25T22:08:47.759Z,8.30
2018-07-25T22:11:16.865Z,7.90
2018-07-25T22:13:51.198Z,8.47
2018-07-25T22:16:20.122Z,9.83
2018-07-25T22:18:49.201Z,8.20
2018-07-25T22:21:18.518Z,7.60
2018-07-25T22:23:47.585Z,7.40
2018-07-25T22:26:16.638Z,8.20
2018-07-25T22:28:45.685Z,7.33
2018-07-25T22:31:14.730Z,9.33
2018-07-25T22:33:43.796Z,7.23
2018-07-25T22:36:12.864Z,10.10
2018-07-25T22:38:41.931Z,7.97
2018-07-25T22:41:10.976Z,7.57
2018-07-25T22:43:40.049Z,7.23
2018-07-25T22:46:09.102Z,10.00
2018-07-25T22:48:38.248Z,9.67
2018-07-25T22:51:07.492Z,8.50
2018-07-25T22:53:36.535Z,8.37
2018-07-25T22:56:05.619Z,7.90
2018-07-25T22:58:34.662Z,6.07
2018-07-25T23:01:03.800Z,9.90
2018-07-25T23:03:32.890Z,7.30
